Redwood City, CA (94064)

3:16 AM PST on February 20, 2018 (GMT -0800)
Sterling Heights | | Change Station
Active Advisory: Frost Advisory

Elev 134 ft 37.46 °N, 122.25 °W | Updated 1 minute ago

Clear
Clear
36.1 °F
Feels Like 36.1 °F
N
0.0
Wind Variable Wind from WSW
Gusts 0.0 mph

Today
High -- | Low -- °F
--% Chance of Precip.
Yesterday
High -- | Low -- °F
Precip. -- in
Pressure 30.20 in
Visibility 10.0 miles
Clouds Clear
Dew Point 28.6 °F
Humidity 74%
Rainfall 0.00 in
Snow Depth Not available.
6:51 AM 5:53 PM
Waxing Crescent, 21% visible
METAR KSQL 201055Z AUTO 00000KT 10SM CLR 03/M02 A3020 RMK AO2
Pressure 30.20 in
Visibility 10.0 miles
Clouds Clear
Dew Point 28.6 °F
Humidity 74%
Rainfall 0.00 in
Snow Depth Not available.
6:51 AM 5:53 PM
Waxing Crescent, 21% visible
METAR KSQL 201055Z AUTO 00000KT 10SM CLR 03/M02 A3020 RMK AO2

Get Your Daily Forecast Email!

Thanks for signing up!

Be on the lookout for a verification email in your inbox.

You'll start receiving severe weather alerts in your inbox..

×

10-Day Weather Forecast

Almanac

Astronomy

Feb. 20, 2018 Rise Set
Actual Time
Civil Twilight
Nautical Twilight
Astronomical Twilight
Moon
Length of Visible Light
Length of Day
Tomorrow will be .
, % of the Moon is Illuminated

Today's Extremes

State Highs State Lows

Community

WunderPhotos

Category 6

Welcome to Category 6. This is the collective home for Weather Underground's featured writeups by Dr. Jeff Masters (right), Bob Henson (left), Chris Burt, and other regular contributors.

Nearby

Air Quality

  Air Quality AQ Index Pollutant
Not available.

Snow Depth

Station Depth Elevation

Earthquake Activity

City Distance Mag. Time & Date
Minimum magnitude displayed is 2.5.

Coastal Water Temperatures

Place Temperature

Stations

Nearby Weather Stations

Station Location Temp. Windchill Dew Point Humidity Wind Precip. Elev Updated Type
                   

Watches & Warnings

Frost Advisory
Issued: 2:57 AM PST Feb. 20, 2018 – National Weather Service

... Frost advisory remains in effect until 9 am PST this morning...

A frost advisory remains in effect until 9 am PST this morning.

* Location... all coastal and Bayside areas of the San Francisco
Bay area and Monterey Bay area, except the city of San
Francisco.

* Temperatures... widespread overnight lows from 30 to 35.

* Timing... several hours of temperatures near freezing from late
Monday night through mid morning Tuesday.

* Impacts... frost can damage outdoor vegetation that is very
sensitive to cold. Please check on the elderly and make sure
animals have a warm shelter.

Precautionary/preparedness actions...

A frost advisory means that frost is possible. Sensitive outdoor
plants may be damaged if left uncovered.